Terminal Aerodrome Forecast
Issued by NWS Rapid City, SD

Home | Current Version | Previous Version | Graphics & Text | Print | Product List | Glossary On
Versions: 1 2 3 4 5 6 7 8 9 10 11 12 13 14 15 16 17 18
000
FTUS43 KUNR 011700
TAFRAP
TAF
KRAP 011721Z 0118/0218 33027G37KT P6SM SCT150
     FM012300 34021G30KT P6SM SCT150
     FM020200 32011KT P6SM SCT150
     FM021500 34021G28KT P6SM SCT150=

USA.gov is the U.S. government's official web portal to all federal, state and local government web resources and services.